createdAt,value
2019-02-07T00:00:32.506Z,-3.08
2019-02-07T00:03:00.086Z,-3.11
2019-02-07T00:05:27.634Z,-3.29
2019-02-07T00:07:55.231Z,-3.22
2019-02-07T00:10:22.777Z,-3.30
2019-02-07T00:12:50.830Z,-3.45
2019-02-07T00:15:18.416Z,-3.50
2019-02-07T00:17:45.943Z,-3.58
2019-02-07T00:20:14.028Z,-3.63
2019-02-07T00:22:41.699Z,-3.58
2019-02-07T00:25:09.313Z,-3.50
2019-02-07T00:27:36.930Z,-3.41
2019-02-07T00:30:05.885Z,-3.47
2019-02-07T00:32:33.412Z,-3.49
2019-02-07T00:35:07.140Z,-3.44
2019-02-07T00:37:34.817Z,-3.54
2019-02-07T00:40:02.427Z,-3.69
2019-02-07T00:42:30.062Z,-3.80
2019-02-07T00:44:57.656Z,-3.86
2019-02-07T00:47:25.255Z,-4.01
2019-02-07T00:49:52.829Z,-4.05
2019-02-07T00:52:20.422Z,-4.04
2019-02-07T00:54:48.039Z,-4.13
2019-02-07T00:57:15.604Z,-4.25
2019-02-07T00:59:43.166Z,-4.36
2019-02-07T01:02:10.623Z,-4.42
2019-02-07T01:04:38.082Z,-4.51
2019-02-07T01:07:05.665Z,-4.51
2019-02-07T01:09:33.170Z,-4.46
2019-02-07T01:12:01.369Z,-4.39
2019-02-07T01:14:28.734Z,-4.41
2019-02-07T01:16:56.471Z,-4.51
2019-02-07T01:19:23.840Z,-4.58
2019-02-07T01:21:51.300Z,-4.56
2019-02-07T01:24:18.715Z,-4.66
2019-02-07T01:26:46.107Z,-4.71
2019-02-07T01:29:13.675Z,-4.69
2019-02-07T01:31:41.418Z,-4.65
2019-02-07T01:34:08.886Z,-4.64
2019-02-07T01:36:36.430Z,-4.65
2019-02-07T01:39:06.253Z,-4.74
2019-02-07T01:41:33.664Z,-4.79
2019-02-07T01:44:01.054Z,-4.75
2019-02-07T01:46:28.788Z,-4.69
2019-02-07T01:48:56.309Z,-4.93
2019-02-07T01:51:23.772Z,-4.93
2019-02-07T01:53:51.261Z,-4.93
2019-02-07T01:56:18.937Z,-4.95
2019-02-07T01:58:46.409Z,-4.94
2019-02-07T02:01:14.879Z,-4.94
2019-02-07T02:03:42.375Z,-4.92
2019-02-07T02:06:09.857Z,-4.86
2019-02-07T02:08:38.250Z,-4.82
2019-02-07T02:11:06.084Z,-4.73
2019-02-07T02:13:33.560Z,-4.82
2019-02-07T02:16:00.983Z,-4.88
2019-02-07T02:18:28.402Z,-4.85
2019-02-07T02:20:55.965Z,-4.90
2019-02-07T02:23:23.632Z,-4.90
2019-02-07T02:25:51.187Z,-4.87
2019-02-07T02:28:18.539Z,-4.89
2019-02-07T02:30:46.465Z,-4.80
2019-02-07T02:33:13.954Z,-4.79
2019-02-07T02:35:41.514Z,-4.68
2019-02-07T02:38:09.107Z,-4.62
2019-02-07T02:40:36.574Z,-4.57
2019-02-07T02:43:03.924Z,-4.71
2019-02-07T02:45:37.588Z,-4.81
2019-02-07T02:48:00.758Z,-4.90
2019-02-07T02:50:28.122Z,-4.92
2019-02-07T02:52:55.607Z,-4.90
2019-02-07T02:55:42.881Z,-4.97
2019-02-07T02:58:10.347Z,-5.00
2019-02-07T03:01:06.509Z,-5.06
2019-02-07T03:03:41.782Z,-5.19
2019-02-07T03:06:32.597Z,-5.10
2019-02-07T03:09:34.696Z,-5.11
2019-02-07T03:12:20.324Z,-5.12
2019-02-07T03:15:07.275Z,-5.15
2019-02-07T03:18:04.724Z,-5.15
2019-02-07T03:21:00.717Z,-5.14
2019-02-07T03:23:46.714Z,-5.17
2019-02-07T03:26:28.406Z,-5.16
2019-02-07T03:29:18.592Z,-5.16
2019-02-07T03:32:04.422Z,-5.03
2019-02-07T03:34:42.911Z,-5.12
2019-02-07T03:37:28.630Z,-5.03
2019-02-07T03:40:24.566Z,-5.05
2019-02-07T03:43:17.055Z,-4.92
2019-02-07T03:46:03.239Z,-4.84
2019-02-07T03:48:39.750Z,-4.90
2019-02-07T03:51:20.610Z,-4.93
2019-02-07T03:54:10.498Z,-5.05
2019-02-07T03:56:56.244Z,-5.02
2019-02-07T03:59:43.290Z,-5.11
2019-02-07T04:02:30.381Z,-5.15
2019-02-07T04:05:04.382Z,-5.07
2019-02-07T04:08:03.172Z,-5.03
2019-02-07T04:10:50.188Z,-4.91
2019-02-07T04:13:36.509Z,-4.85
2019-02-07T04:16:32.683Z,-4.79
2019-02-07T04:19:25.414Z,-4.75
2019-02-07T04:22:05.988Z,-4.70
2019-02-07T04:24:52.969Z,-4.72
2019-02-07T04:27:42.904Z,-4.71
2019-02-07T04:30:35.665Z,-4.81
2019-02-07T04:33:21.456Z,-4.86
2019-02-07T04:36:08.727Z,-4.87
2019-02-07T04:38:57.159Z,-4.85
2019-02-07T04:41:43.784Z,-4.80
2019-02-07T04:44:30.619Z,-4.75
2019-02-07T04:47:20.503Z,-4.62
2019-02-07T04:50:10.204Z,-4.52
2019-02-07T04:53:02.990Z,-4.39
2019-02-07T04:55:49.933Z,-4.28
2019-02-07T04:58:35.695Z,-4.30
2019-02-07T05:01:41.503Z,-4.32
2019-02-07T05:04:28.385Z,-4.37
2019-02-07T05:07:05.539Z,-4.50
2019-02-07T05:09:50.990Z,-4.54
2019-02-07T05:12:47.164Z,-4.47
2019-02-07T05:15:34.113Z,-4.46
2019-02-07T05:18:11.462Z,-4.50
2019-02-07T05:21:09.295Z,-4.50
2019-02-07T05:23:54.506Z,-4.55
2019-02-07T05:26:41.797Z,-4.69
2019-02-07T05:29:28.850Z,-4.75
2019-02-07T05:32:16.250Z,-4.74
2019-02-07T05:35:10.938Z,-4.69
2019-02-07T05:38:03.849Z,-4.68
2019-02-07T05:40:41.166Z,-4.60
2019-02-07T05:43:31.291Z,-4.58
2019-02-07T05:46:21.278Z,-4.62
2019-02-07T05:49:13.926Z,-4.64
2019-02-07T05:52:04.041Z,-4.56
2019-02-07T05:54:57.247Z,-4.45
2019-02-07T05:57:50.778Z,-4.38
2019-02-07T06:00:49.528Z,-4.30
2019-02-07T06:03:39.200Z,-4.22
2019-02-07T06:06:34.934Z,-4.15
2019-02-07T06:09:23.842Z,-4.07
2019-02-07T06:12:13.755Z,-4.07
2019-02-07T06:14:52.396Z,-4.03
2019-02-07T06:17:45.060Z,-3.95
2019-02-07T06:20:32.037Z,-3.78
2019-02-07T06:23:37.366Z,-3.79
2019-02-07T06:26:16.642Z,-3.76
2019-02-07T06:29:02.488Z,-3.69
2019-02-07T06:31:48.117Z,-3.69
2019-02-07T06:34:33.877Z,-3.65
2019-02-07T06:37:35.661Z,-3.60
2019-02-07T06:40:35.452Z,-3.60
2019-02-07T06:43:21.130Z,-3.52
2019-02-07T06:46:17.565Z,-3.46
2019-02-07T06:49:03.115Z,-3.34
2019-02-07T06:51:45.075Z,-3.24
2019-02-07T06:54:32.001Z,-3.16
2019-02-07T06:57:22.068Z,-3.06
2019-02-07T07:00:14.900Z,-2.93
2019-02-07T07:02:54.423Z,-2.80
2019-02-07T07:05:37.984Z,-2.66
2019-02-07T07:08:27.639Z,-2.30
2019-02-07T07:11:12.187Z,-2.04
2019-02-07T07:13:58.312Z,-1.95
2019-02-07T07:16:35.588Z,-1.92
2019-02-07T07:19:31.492Z,-1.94
2019-02-07T07:22:17.075Z,-1.89
2019-02-07T07:25:19.166Z,-1.71
2019-02-07T07:28:11.965Z,-1.76
2019-02-07T07:30:57.752Z,-1.83
2019-02-07T07:33:42.603Z,-1.84
2019-02-07T07:36:28.139Z,-1.83
2019-02-07T07:39:27.514Z,-1.84
2019-02-07T07:42:13.022Z,-1.83
2019-02-07T07:44:59.192Z,-1.97
2019-02-07T07:47:40.607Z,-1.98
2019-02-07T07:50:28.643Z,-1.98
2019-02-07T07:53:18.491Z,-1.95
2019-02-07T07:55:57.502Z,-1.88
2019-02-07T07:58:36.411Z,-1.69
2019-02-07T08:01:20.578Z,-1.44
2019-02-07T08:03:53.487Z,-1.39
2019-02-07T08:06:58.512Z,-1.17
2019-02-07T08:09:50.317Z,-0.99
2019-02-07T08:12:37.304Z,-0.92
2019-02-07T08:15:23.299Z,-0.73
2019-02-07T08:18:09.191Z,-0.63
2019-02-07T08:21:01.615Z,-0.31
2019-02-07T08:23:53.679Z,0.06
2019-02-07T08:26:43.611Z,0.36
2019-02-07T08:29:36.574Z,0.67
2019-02-07T08:32:22.335Z,0.82
2019-02-07T08:35:02.947Z,1.02
2019-02-07T08:37:59.187Z,1.17
2019-02-07T08:40:54.244Z,1.34
2019-02-07T08:43:42.426Z,1.48
2019-02-07T08:46:29.408Z,1.59
2019-02-07T08:49:08.379Z,1.63
2019-02-07T08:51:58.314Z,1.70
2019-02-07T08:54:43.779Z,1.67
2019-02-07T08:57:25.768Z,1.56
2019-02-07T09:00:15.499Z,1.54
2019-02-07T09:02:56.566Z,1.79
2019-02-07T09:05:55.704Z,1.86
2019-02-07T09:08:41.323Z,1.94
2019-02-07T09:11:29.455Z,2.63
2019-02-07T09:14:14.357Z,3.56
2019-02-07T09:17:16.692Z,4.04
2019-02-07T09:20:06.673Z,4.07
2019-02-07T09:22:51.319Z,3.86
2019-02-07T09:25:56.693Z,3.85
2019-02-07T09:28:41.979Z,4.12
2019-02-07T09:31:27.714Z,4.34
2019-02-07T09:34:24.311Z,3.88
2019-02-07T09:37:10.168Z,3.52
2019-02-07T09:40:07.943Z,3.06
2019-02-07T09:43:07.284Z,2.80
2019-02-07T09:45:56.942Z,2.55
2019-02-07T09:48:42.608Z,2.60
2019-02-07T09:51:32.905Z,2.58
2019-02-07T09:54:28.976Z,2.73
2019-02-07T09:57:19.120Z,2.86
2019-02-07T10:00:04.957Z,2.82
2019-02-07T10:02:51.931Z,2.87
2019-02-07T10:05:36.364Z,2.80
2019-02-07T10:08:38.971Z,2.95
2019-02-07T10:11:24.441Z,3.01
2019-02-07T10:14:11.299Z,3.02
2019-02-07T10:16:52.179Z,2.93
2019-02-07T10:19:38.163Z,2.88
2019-02-07T10:22:12.991Z,2.95
2019-02-07T10:25:09.797Z,3.05
2019-02-07T10:27:56.777Z,3.13
2019-02-07T10:30:46.722Z,3.24
2019-02-07T10:33:28.183Z,3.39
2019-02-07T10:36:30.468Z,3.47
2019-02-07T10:39:23.294Z,3.60
2019-02-07T10:42:22.629Z,3.64
2019-02-07T10:45:12.495Z,3.68
2019-02-07T10:48:05.829Z,3.63
2019-02-07T10:50:52.716Z,3.60
2019-02-07T10:53:36.146Z,3.60
2019-02-07T10:56:26.287Z,3.53
2019-02-07T10:59:16.200Z,3.42
2019-02-07T11:02:12.244Z,3.55
2019-02-07T11:04:58.016Z,3.65
2019-02-07T11:07:54.238Z,3.64
2019-02-07T11:10:39.195Z,3.68
2019-02-07T11:13:39.358Z,3.67
2019-02-07T11:16:26.339Z,3.61
2019-02-07T11:19:21.012Z,3.66
2019-02-07T11:22:03.857Z,3.62
2019-02-07T11:25:08.835Z,3.59
2019-02-07T11:27:47.537Z,3.69
2019-02-07T11:30:33.479Z,3.62
2019-02-07T11:33:16.663Z,3.75
2019-02-07T11:36:16.106Z,3.88
2019-02-07T11:38:53.566Z,3.98
2019-02-07T11:41:33.875Z,4.02
2019-02-07T11:44:09.465Z,3.99
2019-02-07T11:47:04.964Z,3.99
2019-02-07T11:49:43.174Z,4.04
2019-02-07T11:52:32.846Z,4.02
2019-02-07T11:55:14.361Z,4.05
2019-02-07T11:58:01.306Z,4.11
2019-02-07T12:00:49.739Z,4.22
2019-02-07T12:03:38.547Z,4.20
2019-02-07T12:06:24.726Z,4.32
2019-02-07T12:09:10.191Z,4.42
2019-02-07T12:12:15.196Z,4.39
2019-02-07T12:15:11.131Z,4.49
2019-02-07T12:18:03.852Z,4.46
2019-02-07T12:20:39.786Z,4.44
2019-02-07T12:23:29.624Z,4.47
2019-02-07T12:26:19.249Z,4.46
2019-02-07T12:28:56.479Z,4.52
2019-02-07T12:31:46.506Z,4.52
2019-02-07T12:34:36.764Z,4.59
2019-02-07T12:37:26.750Z,4.67
2019-02-07T12:40:16.703Z,4.76
2019-02-07T12:43:02.647Z,4.89
2019-02-07T12:45:52.297Z,4.84
2019-02-07T12:48:39.363Z,4.69
2019-02-07T12:51:38.220Z,4.59
2019-02-07T12:54:25.192Z,4.65
2019-02-07T12:57:10.958Z,4.59
2019-02-07T12:59:56.675Z,4.64
2019-02-07T13:02:50.059Z,4.64
2019-02-07T13:05:40.147Z,4.62
2019-02-07T13:08:32.948Z,4.65
2019-02-07T13:11:20.214Z,4.65
2019-02-07T13:14:19.485Z,4.71
2019-02-07T13:16:59.547Z,4.77
2019-02-07T13:19:45.017Z,4.73
2019-02-07T13:22:26.594Z,4.70
2019-02-07T13:25:04.501Z,4.64
2019-02-07T13:27:50.057Z,4.61
2019-02-07T13:30:36.062Z,4.65
2019-02-07T13:33:32.363Z,4.46
2019-02-07T13:36:37.697Z,4.43
2019-02-07T13:39:24.267Z,4.51
2019-02-07T13:42:14.107Z,4.49
2019-02-07T13:44:51.883Z,4.58
2019-02-07T13:47:38.844Z,4.58
2019-02-07T13:50:18.542Z,4.56
2019-02-07T13:53:08.577Z,4.58
2019-02-07T13:56:04.655Z,4.60
2019-02-07T13:58:45.765Z,4.45
2019-02-07T14:01:32.737Z,4.46
2019-02-07T14:04:24.515Z,4.40
2019-02-07T14:07:11.584Z,4.42
2019-02-07T14:09:56.078Z,4.42
2019-02-07T14:12:41.559Z,4.59
2019-02-07T14:15:32.014Z,4.58
2019-02-07T14:18:27.911Z,4.58
2019-02-07T14:21:13.901Z,4.69
2019-02-07T14:23:49.407Z,4.64
2019-02-07T14:26:30.634Z,4.66
2019-02-07T14:29:08.214Z,4.57
2019-02-07T14:31:55.360Z,4.46
2019-02-07T14:34:33.939Z,4.38
2019-02-07T14:37:20.001Z,4.36
2019-02-07T14:40:09.990Z,4.41
2019-02-07T14:42:56.897Z,4.40
2019-02-07T14:45:42.327Z,4.31
2019-02-07T14:48:21.950Z,4.41
2019-02-07T14:50:49.583Z,4.40
2019-02-07T14:53:17.107Z,4.32
2019-02-07T14:55:44.574Z,4.38
2019-02-07T14:58:11.989Z,4.36
2019-02-07T15:00:39.592Z,4.36
2019-02-07T15:03:06.990Z,4.34
2019-02-07T15:05:34.548Z,4.32
2019-02-07T15:08:02.255Z,4.26
2019-02-07T15:10:29.755Z,4.25
2019-02-07T15:12:57.172Z,4.33
2019-02-07T15:15:24.651Z,4.25
2019-02-07T15:17:52.089Z,4.23
2019-02-07T15:20:26.322Z,4.22
2019-02-07T15:22:48.827Z,4.24
2019-02-07T15:25:16.739Z,4.14
2019-02-07T15:27:44.241Z,4.19
2019-02-07T15:30:13.189Z,4.17
2019-02-07T15:32:40.563Z,4.18
2019-02-07T15:35:10.587Z,4.06
2019-02-07T15:37:38.252Z,4.08
2019-02-07T15:40:08.664Z,4.03
2019-02-07T15:42:36.078Z,4.09
2019-02-07T15:45:06.060Z,4.11
2019-02-07T15:47:33.599Z,4.08
2019-02-07T15:50:01.145Z,4.00
2019-02-07T15:52:28.615Z,3.96
2019-02-07T15:54:56.063Z,3.90
2019-02-07T15:57:23.801Z,3.87
2019-02-07T15:59:57.142Z,3.86
2019-02-07T16:02:46.536Z,3.83
2019-02-07T16:05:14.033Z,3.77
2019-02-07T16:07:41.456Z,3.68
2019-02-07T16:10:10.682Z,3.54
2019-02-07T16:12:38.227Z,3.54
2019-02-07T16:15:06.009Z,3.50
2019-02-07T16:17:33.543Z,3.53
2019-02-07T16:20:01.086Z,3.49
2019-02-07T16:22:28.551Z,3.42
2019-02-07T16:24:55.994Z,3.44
2019-02-07T16:27:23.498Z,3.37
2019-02-07T16:29:51.250Z,3.40
2019-02-07T16:32:18.825Z,3.31
2019-02-07T16:34:46.293Z,3.35
2019-02-07T16:37:13.791Z,3.31
2019-02-07T16:39:41.267Z,3.37
2019-02-07T16:42:08.835Z,3.37
2019-02-07T16:44:36.370Z,3.31
2019-02-07T16:47:03.809Z,3.34
2019-02-07T16:49:31.315Z,3.34
2019-02-07T16:51:58.779Z,3.26
2019-02-07T16:54:26.243Z,3.27
2019-02-07T16:56:53.747Z,3.30
2019-02-07T16:59:21.715Z,3.35
2019-02-07T17:01:49.486Z,3.23
2019-02-07T17:04:17.327Z,3.24
2019-02-07T17:06:44.800Z,3.18
2019-02-07T17:09:25.802Z,3.18
2019-02-07T17:11:53.273Z,3.15
2019-02-07T17:14:20.674Z,3.10
2019-02-07T17:16:48.186Z,3.08
2019-02-07T17:19:15.684Z,3.08
2019-02-07T17:21:43.148Z,3.11
2019-02-07T17:24:10.639Z,3.12
2019-02-07T17:26:38.052Z,3.06
2019-02-07T17:29:05.561Z,3.04
2019-02-07T17:31:33.088Z,3.04
2019-02-07T17:34:00.693Z,3.09
2019-02-07T17:36:28.111Z,3.06
2019-02-07T17:38:55.663Z,3.01
2019-02-07T17:41:23.148Z,3.09
2019-02-07T17:43:50.854Z,3.10
2019-02-07T17:46:18.384Z,3.06
2019-02-07T17:48:45.915Z,3.06
2019-02-07T17:51:22.894Z,3.07
2019-02-07T17:53:43.158Z,3.03
2019-02-07T17:56:10.717Z,2.98
2019-02-07T17:58:38.555Z,2.99
2019-02-07T18:01:07.874Z,3.03
2019-02-07T18:03:35.623Z,3.03
2019-02-07T18:06:04.863Z,3.04
2019-02-07T18:08:32.443Z,3.04
2019-02-07T18:10:59.948Z,3.02
2019-02-07T18:13:27.468Z,3.09
2019-02-07T18:15:57.367Z,3.06
2019-02-07T18:18:24.303Z,3.07
2019-02-07T18:20:51.832Z,3.10
2019-02-07T18:23:19.231Z,3.07
2019-02-07T18:25:47.058Z,3.08
2019-02-07T18:28:14.514Z,3.09
2019-02-07T18:30:42.042Z,3.06
2019-02-07T18:33:09.491Z,3.05
2019-02-07T18:35:37.081Z,2.99
2019-02-07T18:38:04.593Z,2.98
2019-02-07T18:40:32.046Z,2.95
2019-02-07T18:43:00.353Z,3.00
2019-02-07T18:45:27.843Z,2.92
2019-02-07T18:47:55.313Z,2.90
2019-02-07T18:50:24.107Z,2.86
2019-02-07T18:52:51.616Z,2.83
2019-02-07T18:55:19.113Z,2.88
2019-02-07T18:57:46.556Z,2.87
2019-02-07T19:00:15.844Z,2.83
2019-02-07T19:02:44.031Z,2.84
2019-02-07T19:05:12.488Z,2.86
2019-02-07T19:07:39.938Z,2.86
2019-02-07T19:10:08.119Z,2.83
2019-02-07T19:12:35.631Z,2.95
2019-02-07T19:15:07.489Z,3.01
2019-02-07T19:17:34.093Z,2.88
2019-02-07T19:20:01.577Z,2.97
2019-02-07T19:22:29.106Z,2.85
2019-02-07T19:24:56.610Z,2.84
2019-02-07T19:27:24.107Z,2.86
2019-02-07T19:29:51.653Z,2.87
2019-02-07T19:32:19.188Z,2.75
2019-02-07T19:34:46.740Z,2.80
2019-02-07T19:37:14.135Z,2.80
2019-02-07T19:39:41.637Z,2.83
2019-02-07T19:42:09.141Z,2.76
2019-02-07T19:44:36.594Z,2.79
2019-02-07T19:47:04.464Z,2.74
2019-02-07T19:49:31.964Z,2.73
2019-02-07T19:52:07.862Z,2.82
2019-02-07T19:54:28.677Z,2.81
2019-02-07T19:56:56.092Z,2.77
2019-02-07T19:59:23.636Z,2.80
2019-02-07T20:01:51.052Z,2.69
2019-02-07T20:04:20.546Z,2.77
2019-02-07T20:06:47.960Z,2.79
2019-02-07T20:09:15.561Z,2.76
2019-02-07T20:11:43.592Z,2.66
2019-02-07T20:14:11.308Z,2.74
2019-02-07T20:16:38.824Z,2.69
2019-02-07T20:19:06.332Z,2.66
2019-02-07T20:21:33.831Z,2.64
2019-02-07T20:24:01.583Z,2.82
2019-02-07T20:26:29.066Z,2.84
2019-02-07T20:28:56.626Z,2.87
2019-02-07T20:31:24.427Z,2.90
2019-02-07T20:33:51.899Z,2.81
2019-02-07T20:36:19.420Z,2.74
2019-02-07T20:38:46.955Z,2.55
2019-02-07T20:41:14.480Z,2.54
2019-02-07T20:43:42.017Z,2.53
2019-02-07T20:46:09.535Z,2.49
2019-02-07T20:48:37.101Z,2.43
2019-02-07T20:51:04.648Z,2.47
2019-02-07T20:53:32.146Z,2.43
2019-02-07T20:55:59.663Z,2.37
2019-02-07T20:58:27.181Z,2.33
2019-02-07T21:00:54.699Z,2.30
2019-02-07T21:03:22.284Z,2.32
2019-02-07T21:05:49.802Z,2.30
2019-02-07T21:08:17.327Z,2.32
2019-02-07T21:10:45.032Z,2.32
2019-02-07T21:13:12.516Z,2.31
2019-02-07T21:15:40.007Z,2.34
2019-02-07T21:18:07.496Z,2.34
2019-02-07T21:20:36.648Z,2.35
2019-02-07T21:23:04.489Z,2.42
2019-02-07T21:25:33.596Z,2.31
2019-02-07T21:28:01.076Z,2.39
2019-02-07T21:30:29.623Z,2.47
2019-02-07T21:32:57.536Z,2.43
2019-02-07T21:35:25.343Z,2.47
2019-02-07T21:37:52.850Z,2.45
2019-02-07T21:40:21.669Z,2.45
2019-02-07T21:42:49.215Z,2.39
2019-02-07T21:45:16.892Z,2.30
2019-02-07T21:47:44.434Z,2.30
2019-02-07T21:50:13.869Z,2.30
2019-02-07T21:52:42.070Z,2.22
2019-02-07T21:55:10.391Z,2.08
2019-02-07T21:57:37.883Z,2.03
2019-02-07T22:00:09.212Z,2.07
2019-02-07T22:02:36.710Z,2.06
2019-02-07T22:05:04.971Z,2.03
2019-02-07T22:07:32.492Z,2.02
2019-02-07T22:09:59.984Z,2.03
2019-02-07T22:12:27.772Z,2.11
2019-02-07T22:14:55.306Z,2.06
2019-02-07T22:17:22.867Z,2.04
2019-02-07T22:19:50.358Z,1.97
2019-02-07T22:22:17.817Z,1.97
2019-02-07T22:24:45.283Z,1.96
2019-02-07T22:27:12.646Z,1.86
2019-02-07T22:29:40.133Z,1.89
2019-02-07T22:32:07.627Z,1.90
2019-02-07T22:34:35.094Z,1.87
2019-02-07T22:37:02.503Z,1.95
2019-02-07T22:39:30.230Z,1.87
2019-02-07T22:41:57.809Z,1.84
2019-02-07T22:44:25.279Z,1.87
2019-02-07T22:46:52.727Z,1.85
2019-02-07T22:49:20.246Z,1.96
2019-02-07T22:51:47.683Z,1.94
2019-02-07T22:54:15.058Z,1.92
2019-02-07T22:56:45.442Z,1.89
2019-02-07T22:59:11.803Z,1.86
2019-02-07T23:01:48.741Z,1.81
2019-02-07T23:04:16.413Z,1.80
2019-02-07T23:06:43.895Z,1.78
2019-02-07T23:09:11.700Z,1.68
2019-02-07T23:11:39.067Z,1.72
2019-02-07T23:14:06.979Z,1.72
2019-02-07T23:16:34.490Z,1.70
2019-02-07T23:19:01.934Z,1.65
2019-02-07T23:21:29.319Z,1.62
2019-02-07T23:23:56.800Z,1.69
2019-02-07T23:26:24.177Z,1.59
2019-02-07T23:28:51.583Z,1.53
2019-02-07T23:31:19.123Z,1.60
2019-02-07T23:33:46.586Z,1.59
2019-02-07T23:36:13.962Z,1.55
2019-02-07T23:38:41.434Z,1.61
2019-02-07T23:41:09.434Z,1.59
2019-02-07T23:43:37.371Z,1.62
2019-02-07T23:46:05.036Z,1.61
2019-02-07T23:48:32.529Z,1.58
2019-02-07T23:51:00.379Z,1.53
2019-02-07T23:53:27.878Z,1.50
2019-02-07T23:55:55.757Z,1.56
2019-02-07T23:58:23.161Z,1.48
